Darstellungsparameter: Aktuell verwendete Einstellungen:
Skalierung der Graphiken ... ?
xyx+y,   Skalierungsfaktor:      Skalierung: Modus: x, Faktor: 1
Darstellungszeitraum ... ?
Vom - - bis: - -   Zeitraum: 07.10.2010 - 07.10.2010
Min/Max/Avg-Anzeige ... ?
Zeige MMA aktuell
Zeige MMA Monat
Zeige MMA alles
Zeige --A aktuell
Zeige --A Monat
Zeige --A alles
Keine MMA-Anzeige
MMA:
Minimum Maximum Average (ber die Originaldaten)
MMA-Basis: 07.10.2010 - 07.10.2010
Quicknavigation für Darstellung... ?
Tage:      1T, 2T, 3T, 5T -1T -2T -3T -5T +1T +2T +3T +5T
Wochen: 1W, 2W, 3W -1W -2W -3W +1W +2W +3W
Monate: 1M, 3M, 6M -1M -3M -6M +1M +3M +6M
Jahre:    1J, 3J, 5J, 10J -1J -3J -5J -10J +1J +3J +5J +10J
Nutze für die Darstellung ... ?
Originaldaten oder Mittelwerte auf ...
Stundenbasis Tagesbasis Wochenbasis
Monatsbasis Jahresbasis      Datenbasis: Original-Daten
Darstellen als:
Statistik (Auto) Statistik J:M      Darstellung:
Zur Graphik,    zurück zur Übersicht aller Sensoren.
 
Tabellarische Datenbersicht: ?
 
Sensor: Nr:Datum:Temp:Abs-Feuchte:Windchill:Wind:
Aussen-T/F 1 07-10-2010 00:07:01 14.5 C 10.2 g/m*3 14.5 C 0 km/h
2 07-10-2010 00:19:01 14.3 C 10.2 g/m*3 14.3 C 0 km/h
3 07-10-2010 00:31:02 14.2 C 10.14 g/m*3 14.2 C 0 km/h
4 07-10-2010 00:43:02 14.1 C 10.19 g/m*3 14.1 C 0 km/h
5 07-10-2010 00:55:01 14 C 10.13 g/m*3 14 C 0 km/h
6 07-10-2010 01:07:01 14 C 10.25 g/m*3 14 C 0 km/h
7 07-10-2010 01:19:01 14.4 C 10.63 g/m*3 14.4 C 0 km/h
8 07-10-2010 01:31:02 14.3 C 10.57 g/m*3 14.3 C 0 km/h
9 07-10-2010 01:43:02 14.2 C 10.5 g/m*3 14.2 C 0 km/h
10 07-10-2010 01:55:01 14.3 C 10.57 g/m*3 14.3 C 0 km/h
11 07-10-2010 02:07:02 14.3 C 10.57 g/m*3 14.3 C 0 km/h
12 07-10-2010 02:19:01 14.2 C 10.38 g/m*3 14.2 C 0 km/h
13 07-10-2010 02:31:01 14.2 C 10.38 g/m*3 14.2 C 0 km/h
14 07-10-2010 02:43:01 14.3 C 10.44 g/m*3 14.3 C 0 km/h
15 07-10-2010 02:55:01 14.2 C 10.38 g/m*3 14.2 C 0 km/h
16 07-10-2010 03:07:01 14.2 C 10.38 g/m*3 14.2 C 0 km/h
17 07-10-2010 03:19:02 14.2 C 10.38 g/m*3 14.2 C 0 km/h
18 07-10-2010 03:31:01 14 C 10.25 g/m*3 14 C 0 km/h
19 07-10-2010 03:43:01 14 C 10.37 g/m*3 14 C 0 km/h
20 07-10-2010 03:55:01 14 C 10.37 g/m*3 14 C 0 km/h
21 07-10-2010 04:07:02 14.5 C 10.7 g/m*3 14.5 C 0 km/h
22 07-10-2010 04:19:01 13.9 C 10.43 g/m*3 13.9 C 0 km/h
23 07-10-2010 04:31:01 13.9 C 10.43 g/m*3 13.9 C 0 km/h
24 07-10-2010 04:43:01 13.5 C 10.06 g/m*3 13.5 C 0 km/h
25 07-10-2010 04:55:01 13.3 C 9.94 g/m*3 13.3 C 0 km/h
Sensor: Nr:Datum:Temp:Abs-Feuchte:Windchill:Wind:
Aussen-T/F 26 07-10-2010 05:07:01 13.1 C 9.93 g/m*3 13.1 C 0 km/h
27 07-10-2010 05:20:01 13 C 9.87 g/m*3 13 C 0 km/h
28 07-10-2010 05:31:01 13.1 C 10.04 g/m*3 13.1 C 0 km/h
29 07-10-2010 05:43:01 13.6 C 10.47 g/m*3 13.6 C 0 km/h
30 07-10-2010 05:56:01 13.7 C 10.54 g/m*3 13.7 C 0 km/h
31 07-10-2010 06:07:01 13.8 C 10.48 g/m*3 13.8 C 0 km/h
32 07-10-2010 06:19:02 13.8 C 10.48 g/m*3 13.8 C 0 km/h
33 07-10-2010 06:32:01 13.8 C 10.48 g/m*3 13.8 C 0 km/h
34 07-10-2010 06:44:01 13.9 C 10.55 g/m*3 13.9 C 0 km/h
35 07-10-2010 06:55:02 13.9 C 10.55 g/m*3 13.9 C 0 km/h
36 07-10-2010 07:08:01 13.8 C 10.48 g/m*3 13.8 C 0 km/h
37 07-10-2010 07:20:01 14 C 10.49 g/m*3 14 C 0 km/h
38 07-10-2010 07:31:02 14.1 C 10.56 g/m*3 14.1 C 0 km/h
39 07-10-2010 07:43:02 14.4 C 10.75 g/m*3 14.4 C 0 km/h
40 07-10-2010 07:56:01 14.3 C 10.69 g/m*3 14.3 C 0 km/h
41 07-10-2010 08:08:01 14.4 C 10.75 g/m*3 14.4 C 0 km/h
42 07-10-2010 08:20:01 14.6 C 10.89 g/m*3 14.6 C 0 km/h
43 07-10-2010 08:32:02 14.7 C 10.95 g/m*3 14.7 C 0 km/h
44 07-10-2010 08:44:02 14.8 C 11.02 g/m*3 14.8 C 0 km/h
45 07-10-2010 08:56:01 14.8 C 10.89 g/m*3 14.8 C 0 km/h
46 07-10-2010 09:08:02 14.8 C 10.77 g/m*3 14.8 C 0 km/h
47 07-10-2010 09:20:01 14.7 C 10.45 g/m*3 14.7 C 0 km/h
48 07-10-2010 09:32:01 14.8 C 10.51 g/m*3 14.8 C 0 km/h
49 07-10-2010 09:44:01 15.3 C 10.71 g/m*3 15.3 C 0 km/h
50 07-10-2010 09:56:01 15.7 C 10.57 g/m*3 15.7 C 0 km/h
Sensor: Nr:Datum:Temp:Abs-Feuchte:Windchill:Wind:
Aussen-T/F 51 07-10-2010 10:08:01 16.2 C 10.48 g/m*3 16.2 C 0 km/h
52 07-10-2010 10:20:02 16.1 C 10.14 g/m*3 16.1 C 0 km/h
53 07-10-2010 10:32:01 16.2 C 10.34 g/m*3 16.2 C 0 km/h
54 07-10-2010 10:44:01 16.2 C 10.34 g/m*3 16.2 C 0 km/h
55 07-10-2010 10:56:01 16.2 C 10.34 g/m*3 16.2 C 0 km/h
56 07-10-2010 11:08:01 16.7 C 10.52 g/m*3 16.7 C 0 km/h
57 07-10-2010 11:20:02 17.1 C 10.34 g/m*3 17.1 C 0 km/h
58 07-10-2010 11:32:01 17.3 C 10.31 g/m*3 17.3 C 0 km/h
59 07-10-2010 11:44:01 17.4 C 10.08 g/m*3 17.4 C 0 km/h
60 07-10-2010 11:56:02 17.8 C 10.32 g/m*3 17.8 C 0 km/h
61 07-10-2010 12:08:01 18.1 C 9.89 g/m*3 18.1 C 0 km/h
62 07-10-2010 12:20:01 18.3 C 10.01 g/m*3 18.3 C 0 km/h
63 07-10-2010 12:32:02 18.3 C 10.01 g/m*3 18.3 C 0 km/h
64 07-10-2010 12:44:02 18.7 C 10.09 g/m*3 18.7 C 0 km/h
65 07-10-2010 12:56:01 18.6 C 9.87 g/m*3 18.6 C 0 km/h
66 07-10-2010 13:08:02 18.8 C 10.15 g/m*3 18.8 C 0 km/h
67 07-10-2010 13:20:01 19.2 C 10.06 g/m*3 19.2 C 0 km/h
68 07-10-2010 13:32:02 19.3 C 9.62 g/m*3 19.3 C 0 km/h
69 07-10-2010 13:44:02 19.5 C 9.73 g/m*3 19.5 C 0 km/h
70 07-10-2010 13:56:01 19.5 C 9.57 g/m*3 19.5 C 0 km/h
71 07-10-2010 14:08:02 19.7 C 9.85 g/m*3 19.7 C 0 km/h
72 07-10-2010 14:20:01 19.8 C 9.91 g/m*3 19.8 C 0 km/h
73 07-10-2010 14:32:01 19.7 C 9.68 g/m*3 19.7 C 0 km/h
74 07-10-2010 14:44:01 19.9 C 9.79 g/m*3 19.9 C 0 km/h
75 07-10-2010 14:56:01 20.3 C 9.67 g/m*3 20.3 C 0 km/h
Sensor: Nr:Datum:Temp:Abs-Feuchte:Windchill:Wind:
Aussen-T/F 76 07-10-2010 15:08:01 20.5 C 9.43 g/m*3 20.5 C 0 km/h
77 07-10-2010 15:20:01 20.8 C 9.6 g/m*3 20.8 C 0 km/h
78 07-10-2010 15:32:01 20.7 C 9.54 g/m*3 20.7 C 0 km/h
79 07-10-2010 15:44:01 20.4 C 9.38 g/m*3 20.4 C 0 km/h
80 07-10-2010 15:56:01 20.1 C 9.56 g/m*3 20.1 C 0 km/h
81 07-10-2010 16:08:01 20 C 9.68 g/m*3 20 C 0 km/h
82 07-10-2010 16:20:02 20.4 C 9.55 g/m*3 20.4 C 0 km/h
83 07-10-2010 16:32:01 20.1 C 9.39 g/m*3 20.1 C 0 km/h
84 07-10-2010 16:44:01 19.6 C 9.45 g/m*3 19.6 C 0 km/h
85 07-10-2010 16:56:02 19.6 C 9.28 g/m*3 19.6 C 0 km/h
86 07-10-2010 17:08:01 19.6 C 9.45 g/m*3 19.6 C 0 km/h
87 07-10-2010 17:20:01 19.3 C 9.45 g/m*3 19.3 C 0 km/h
88 07-10-2010 17:32:02 19.2 C 9.56 g/m*3 19.2 C 0 km/h
89 07-10-2010 17:44:02 19 C 9.45 g/m*3 19 C 0 km/h
90 07-10-2010 17:56:01 18.7 C 9.93 g/m*3 18.7 C 0 km/h
91 07-10-2010 18:08:02 18.3 C 10.01 g/m*3 18.3 C 0 km/h
92 07-10-2010 18:20:01 18.1 C 10.2 g/m*3 18.1 C 0 km/h
93 07-10-2010 18:32:02 17.9 C 10.23 g/m*3 17.9 C 0 km/h
94 07-10-2010 18:44:02 17.7 C 10.26 g/m*3 17.7 C 0 km/h
95 07-10-2010 18:56:01 17.4 C 10.37 g/m*3 17.4 C 0 km/h
96 07-10-2010 19:08:02 17.1 C 10.34 g/m*3 17.1 C 0 km/h
97 07-10-2010 19:20:01 17 C 10.42 g/m*3 17 C 0 km/h
98 07-10-2010 19:32:01 16.8 C 10.44 g/m*3 16.8 C 0 km/h
99 07-10-2010 19:44:01 17 C 10.42 g/m*3 17 C 0 km/h
100 07-10-2010 19:56:01 16.6 C 10.31 g/m*3 16.6 C 0 km/h
Sensor: Nr:Datum:Temp:Abs-Feuchte:Windchill:Wind:
Aussen-T/F 101 07-10-2010 20:08:01 16.5 C 10.39 g/m*3 16.5 C 0 km/h
102 07-10-2010 20:20:02 16.4 C 10.33 g/m*3 16.4 C 0 km/h
103 07-10-2010 20:32:01 16.2 C 10.34 g/m*3 16.2 C 0 km/h
104 07-10-2010 20:44:01 16.2 C 10.34 g/m*3 16.2 C 0 km/h
105 07-10-2010 20:56:02 16.2 C 10.34 g/m*3 16.2 C 0 km/h
106 07-10-2010 21:08:01 16.3 C 10.13 g/m*3 16.3 C 0 km/h
107 07-10-2010 21:20:02 16.3 C 10.27 g/m*3 16.3 C 0 km/h
108 07-10-2010 21:32:01 16.2 C 10.2 g/m*3 16.2 C 0 km/h
109 07-10-2010 21:44:01 16.2 C 10.07 g/m*3 16.2 C 0 km/h
110 07-10-2010 21:56:02 16.1 C 10.01 g/m*3 16.1 C 0 km/h
111 07-10-2010 22:08:01 16 C 9.95 g/m*3 16 C 0 km/h
112 07-10-2010 22:20:02 16 C 9.95 g/m*3 16 C 0 km/h
113 07-10-2010 22:32:02 16 C 9.95 g/m*3 16 C 0 km/h
114 07-10-2010 22:44:02 16 C 9.81 g/m*3 16 C 0 km/h
115 07-10-2010 22:56:02 16 C 9.67 g/m*3 16 C 0 km/h
116 07-10-2010 23:08:02 16.1 C 9.73 g/m*3 16.1 C 0 km/h
117 07-10-2010 23:20:02 16 C 9.67 g/m*3 16 C 0 km/h
118 07-10-2010 23:32:02 16 C 9.67 g/m*3 16 C 0 km/h
119 07-10-2010 23:44:02 16 C 9.81 g/m*3 16 C 0 km/h
120 07-10-2010 23:56:02 16 C 9.81 g/m*3 16 C 0 km/h

Legende:
   Min
   Max


Maximal/Minimal-Werte vom 07.10.2010 - 07.10.2010

Sensor Min Max Avg
Temp
(Aussen-T/F)
13 °C
07-10-2010  05:20:01
20.8 °C
07-10-2010  15:20:01
16.31 °C
Abs-Feuchte
(Aussen-T/F)
9.28 g/m*3
07-10-2010  16:56:02
11.02 g/m*3
07-10-2010  08:44:02
10.08 g/m*3
Windchill
(Aussen-T/F)
13 C
07-10-2010  05:20:01
20.8 C
07-10-2010  15:20:01
16.18 C

Die Daten stammen von einer Davis Vantage Pro 2 Wetter-Station und werden unter Linux mit der Software wview2wettercgi und aufbereitet. Alle Angaben erfolgen ohne Gewähr für ihre Vollständigkeit oder Richtigkeit.
Kontakt: Rainer Krienke krienke@uni-koblenz.de . Meine Webseiten an der Uni Koblenz oder privat.
Version: $Revision: 0.78 $